Time;durP1;ratioP1;P1;durP2;ratioP2;P2;SDS_P1;SDS_P2;PMS_P1;PMS_P2;Temp;Humidity;BMP_temperature;BMP_pressure;BME280_temperature;BME280_humidity;BME280_pressure;Samples;Min_cycle;Max_cycle;Signal;HPM_P1;HPM_P2
2023/07/27 00:02:07;;;;;;;3.10;2.80;;;19.80;42.40;;;;;;5072271;28;20199;-51
2023/07/27 00:04:34;;;;;;;3.20;2.90;;;19.80;42.10;;;;;;5072141;28;20402;-54
2023/07/27 00:06:59;;;;;;;4.35;3.15;;;19.70;42.00;;;;;;5072039;28;20176;-53
2023/07/27 00:09:26;;;;;;;3.10;2.60;;;19.70;42.50;;;;;;5071671;28;20180;-51
2023/07/27 00:11:52;;;;;;;3.17;2.88;;;19.60;42.40;;;;;;5071854;28;20200;-52
2023/07/27 00:14:17;;;;;;;3.47;3.13;;;19.60;42.60;;;;;;5071745;28;20652;-53
2023/07/27 00:16:44;;;;;;;5.10;3.60;;;19.60;42.80;;;;;;5072054;28;20407;-53
2023/07/27 00:19:09;;;;;;;4.10;3.10;;;19.60;42.90;;;;;;5071890;28;20395;-50
2023/07/27 00:21:35;;;;;;;5.40;3.57;;;19.70;42.80;;;;;;5069139;28;20196;-55
2023/07/27 00:24:01;;;;;;;3.03;2.70;;;19.60;42.80;;;;;;5070752;28;20701;-54
2023/07/27 00:26:27;;;;;;;3.30;3.00;;;19.60;42.60;;;;;;5075829;28;20190;-52
2023/07/27 00:28:52;;;;;;;3.40;2.93;;;19.60;42.20;;;;;;5075794;28;20226;-51
2023/07/27 00:31:18;;;;;;;3.60;3.30;;;19.60;42.40;;;;;;5075585;28;20196;-53
2023/07/27 00:33:44;;;;;;;3.87;3.47;;;19.60;42.20;;;;;;5075813;28;20765;-52
2023/07/27 00:36:10;;;;;;;4.20;3.53;;;19.50;42.30;;;;;;5075761;28;20402;-51
2023/07/27 00:38:36;;;;;;;4.30;2.80;;;19.50;42.70;;;;;;5075698;28;20165;-53
2023/07/27 00:41:01;;;;;;;3.30;2.77;;;19.50;42.60;;;;;;5075380;28;20191;-53
2023/07/27 00:43:27;;;;;;;3.63;3.30;;;19.50;42.60;;;;;;5075609;28;20640;-51
2023/07/27 00:45:54;;;;;;;3.97;3.20;;;19.40;42.30;;;;;;5075544;28;20214;-53
2023/07/27 00:48:21;;;;;;;6.20;3.55;;;19.40;42.40;;;;;;5075600;28;20173;-53
2023/07/27 00:50:47;;;;;;;3.58;3.28;;;19.30;42.70;;;;;;5075114;28;20232;-53
2023/07/27 00:53:14;;;;;;;4.05;2.83;;;19.30;43.00;;;;;;5075232;28;20173;-53
2023/07/27 00:55:41;;;;;;;4.47;3.15;;;19.30;43.20;;;;;;5075210;28;20176;-51
2023/07/27 00:58:08;;;;;;;3.53;3.22;;;19.30;43.10;;;;;;5075506;28;20192;-50
2023/07/27 01:00:34;;;;;;;3.70;2.95;;;19.30;43.20;;;;;;5074582;28;20193;-52
2023/07/27 01:03:02;;;;;;;3.30;3.00;;;19.30;43.20;;;;;;5075321;28;20184;-52
2023/07/27 01:05:29;;;;;;;3.08;2.78;;;19.30;42.90;;;;;;5075100;28;20185;-53
2023/07/27 01:07:54;;;;;;;4.20;3.15;;;19.30;43.20;;;;;;5075071;28;20173;-53
2023/07/27 01:10:29;;;;;;;4.07;3.27;;;19.30;43.20;;;;;;5074637;28;20255;-53
2023/07/27 01:13:01;;;;;;;3.60;3.30;;;19.20;43.10;;;;;;5075120;28;20516;-50
2023/07/27 01:15:32;;;;;;;3.45;3.15;;;19.20;43.10;;;;;;5075106;28;20211;-53
2023/07/27 01:18:19;;;;;;;3.53;3.15;;;19.20;43.10;;;;;;5074910;28;20663;-52
2023/07/27 01:20:57;;;;;;;3.08;2.88;;;19.10;43.00;;;;;;5074536;28;20675;-53
2023/07/27 01:23:56;;;;;;;2.70;2.30;;;19.10;43.00;;;;;;5074801;28;20222;-54
2023/07/27 01:26:41;;;;;;;3.45;2.75;;;19.00;42.90;;;;;;5074776;28;20169;-52
2023/07/27 01:29:22;;;;;;;3.80;3.40;;;18.90;43.90;;;;;;5074560;28;20165;-52
2023/07/27 01:31:51;;;;;;;4.82;2.88;;;18.90;43.20;;;;;;5074605;28;20196;-53
2023/07/27 01:34:29;;;;;;;5.15;2.78;;;18.90;43.30;;;;;;5074324;28;20205;-52
2023/07/27 01:37:02;;;;;;;3.85;3.20;;;18.90;43.50;;;;;;5074631;28;20177;-53
2023/07/27 01:39:31;;;;;;;3.08;2.78;;;18.80;43.60;;;;;;5074398;28;20177;-52
2023/07/27 01:41:59;;;;;;;3.30;3.00;;;18.80;43.50;;;;;;5074807;28;20678;-51
2023/07/27 01:44:29;;;;;;;3.28;2.75;;;18.80;43.20;;;;;;5074445;28;20180;-53
2023/07/27 01:46:55;;;;;;;4.45;3.00;;;18.80;43.50;;;;;;5074722;28;20187;-53
2023/07/27 01:49:23;;;;;;;3.58;3.28;;;18.80;43.40;;;;;;5074168;28;20176;-51
2023/07/27 01:51:50;;;;;;;3.63;3.30;;;18.70;43.30;;;;;;5074174;28;20188;-54
2023/07/27 01:54:16;;;;;;;3.45;3.15;;;18.70;43.20;;;;;;5074132;28;20560;-54
2023/07/27 01:56:45;;;;;;;3.88;2.38;;;18.60;42.90;;;;;;5074226;28;20176;-52
2023/07/27 01:59:13;;;;;;;4.15;3.10;;;18.60;43.10;;;;;;5074027;28;20173;-53
2023/07/27 02:01:42;;;;;;;3.83;3.00;;;18.50;43.10;;;;;;5074070;28;20250;-53
2023/07/27 02:04:09;;;;;;;3.95;3.55;;;18.40;43.40;;;;;;5074079;28;20265;-52
2023/07/27 02:06:35;;;;;;;4.97;4.10;;;18.40;43.80;;;;;;5073790;28;20176;-54
2023/07/27 02:09:00;;;;;;;3.37;3.07;;;18.40;44.00;;;;;;5074184;28;20184;-54
2023/07/27 02:11:27;;;;;;;7.60;3.03;;;18.40;43.90;;;;;;5073627;28;20211;-52
2023/07/27 02:14:18;;;;;;;3.83;3.40;;;18.40;43.90;;;;;;5073769;28;20459;-52
2023/07/27 02:16:49;;;;;;;6.43;3.42;;;18.40;44.30;;;;;;5073799;28;20173;-51
2023/07/27 09:46:08;;;;;;;3.10;2.80;;;21.50;41.70;;;;;;5150495;27;20526;-52
2023/07/27 09:48:34;;;;;;;4.87;3.07;;;24.90;32.60;;;;;;5150867;27;20412;-53
2023/07/27 09:51:01;;;;;;;4.10;2.97;;;25.00;33.80;;;;;;5150752;27;20190;-49
2023/07/27 09:53:32;;;;;;;3.43;3.03;;;25.20;33.40;;;;;;5150710;27;20402;-54
2023/07/27 09:55:59;;;;;;;4.67;3.00;;;25.40;32.30;;;;;;5150460;27;20424;-51
2023/07/27 09:58:26;;;;;;;5.03;3.20;;;25.50;32.20;;;;;;5150733;27;20400;-50
2023/07/27 10:00:52;;;;;;;7.70;3.80;;;25.50;33.00;;;;;;5150655;27;20884;-53
2023/07/27 10:03:18;;;;;;;3.87;3.00;;;25.60;32.70;;;;;;5150549;27;20460;-52
2023/07/27 10:05:44;;;;;;;3.40;3.10;;;25.60;31.30;;;;;;5150260;27;20239;-50
2023/07/27 10:08:10;;;;;;;7.30;3.50;;;25.50;31.80;;;;;;5150510;27;20239;-50
2023/07/27 10:10:39;;;;;;;3.10;2.70;;;25.50;31.00;;;;;;5149136;27;20538;-52
2023/07/27 10:13:25;;;;;;;4.70;3.60;;;25.50;30.30;;;;;;5150461;27;20403;-50
2023/07/27 10:15:55;;;;;;;6.33;2.80;;;25.50;30.10;;;;;;5135707;27;20478;-50
2023/07/27 10:18:26;;;;;;;5.33;3.33;;;25.40;30.80;;;;;;5150244;27;20496;-50
2023/07/27 10:21:21;;;;;;;4.70;3.40;;;25.40;31.30;;;;;;5150336;27;20451;-50
2023/07/27 10:23:55;;;;;;;4.13;3.10;;;25.40;30.30;;;;;;5142653;27;20862;-52
2023/07/27 10:26:21;;;;;;;4.60;3.00;;;25.40;31.90;;;;;;5149845;27;20483;-49
2023/07/27 10:28:48;;;;;;;3.50;2.70;;;25.30;30.90;;;;;;5150048;27;20453;-54
2023/07/27 10:31:14;;;;;;;3.80;2.93;;;25.30;30.10;;;;;;5150058;27;21155;-53
2023/07/27 10:33:48;;;;;;;3.40;2.73;;;25.20;30.30;;;;;;5150129;27;20522;-49
2023/07/27 10:36:15;;;;;;;2.67;2.20;;;25.10;31.00;;;;;;5149717;27;20967;-49
2023/07/27 10:38:52;;;;;;;3.97;3.00;;;25.00;31.10;;;;;;5149897;27;20400;-51
2023/07/27 10:41:20;;;;;;;3.83;3.00;;;25.00;31.70;;;;;;5150036;27;20408;-54
2023/07/27 10:44:07;;;;;;;7.30;2.80;;;25.00;32.20;;;;;;5150037;27;20793;-50
2023/07/27 10:46:46;;;;;;;4.23;2.80;;;25.00;32.50;;;;;;5139017;27;20396;-49
2023/07/27 10:49:15;;;;;;;4.40;3.17;;;25.00;32.00;;;;;;5136117;27;20388;-52
2023/07/27 10:51:42;;;;;;;3.43;3.00;;;25.00;30.70;;;;;;5135796;27;20396;-50
2023/07/27 10:54:12;;;;;;;4.70;3.30;;;25.00;31.20;;;;;;5135487;27;20452;-50
2023/07/27 10:56:40;;;;;;;4.13;3.27;;;25.00;30.60;;;;;;5135959;27;20405;-53
2023/07/27 10:59:10;;;;;;;4.17;2.87;;;25.10;30.80;;;;;;5136008;27;20409;-54
2023/07/27 11:01:36;;;;;;;3.97;3.57;;;25.20;30.80;;;;;;5135699;27;20420;-49
2023/07/27 11:04:03;;;;;;;6.20;3.77;;;25.30;30.70;;;;;;5135510;27;20556;-52
2023/07/27 11:06:30;;;;;;;5.60;3.33;;;25.30;31.30;;;;;;5135539;27;20248;-48
2023/07/27 11:08:56;;;;;;;4.33;3.40;;;25.30;30.60;;;;;;5135576;27;20919;-51
2023/07/27 11:11:27;;;;;;;6.90;3.40;;;25.20;30.90;;;;;;5135341;27;20400;-52
2023/07/27 11:13:53;;;;;;;5.37;4.10;;;25.20;31.30;;;;;;5135298;27;20526;-49
2023/07/27 11:16:19;;;;;;;5.00;3.20;;;25.30;31.90;;;;;;5135055;27;20500;-51
2023/07/27 11:18:45;;;;;;;4.33;3.93;;;25.30;32.10;;;;;;5135245;27;20807;-53
2023/07/27 11:21:12;;;;;;;4.37;3.40;;;25.40;32.00;;;;;;5135418;27;20517;-50
2023/07/27 11:23:46;;;;;;;4.20;3.17;;;25.40;31.10;;;;;;5135433;27;20437;-52
2023/07/27 11:26:13;;;;;;;3.83;3.10;;;25.40;31.10;;;;;;5134939;27;20419;-49
2023/07/27 11:28:42;;;;;;;3.80;3.40;;;25.40;30.80;;;;;;5135187;27;20389;-52
2023/07/27 11:31:08;;;;;;;3.33;3.03;;;25.50;31.60;;;;;;5135132;27;20396;-53
2023/07/27 11:33:38;;;;;;;4.90;2.83;;;25.50;30.60;;;;;;5134936;27;20414;-49
2023/07/27 11:36:07;;;;;;;4.87;3.47;;;25.50;30.60;;;;;;5134849;27;20430;-53
2023/07/27 11:38:33;;;;;;;5.50;3.93;;;25.50;30.70;;;;;;5134891;27;20412;-52
2023/07/27 11:40:59;;;;;;;6.57;4.77;;;25.50;30.90;;;;;;5135064;27;20483;-51
2023/07/27 11:43:26;;;;;;;6.63;6.03;;;25.50;31.00;;;;;;5134749;27;20416;-54
2023/07/27 11:45:59;;;;;;;10.90;7.03;;;25.50;31.00;;;;;;5134436;27;20446;-54
2023/07/27 11:48:29;;;;;;;5.00;3.47;;;25.50;30.50;;;;;;5134929;27;20411;-48
2023/07/27 11:50:59;;;;;;;4.50;3.07;;;25.50;29.00;;;;;;5134814;27;20423;-52
2023/07/27 11:53:27;;;;;;;4.03;2.90;;;25.30;29.40;;;;;;5133414;27;20396;-51
2023/07/27 11:55:56;;;;;;;3.27;2.97;;;25.30;30.70;;;;;;5134264;27;20842;-49
2023/07/27 11:58:30;;;;;;;2.53;2.13;;;25.40;30.40;;;;;;5133526;27;20436;-53
2023/07/27 12:00:56;;;;;;;5.57;2.50;;;25.50;30.00;;;;;;5134504;27;20439;-50
2023/07/27 12:03:24;;;;;;;3.87;3.17;;;25.50;30.40;;;;;;5134421;27;20443;-52
2023/07/27 12:05:56;;;;;;;6.97;3.23;;;25.50;31.20;;;;;;5134034;27;20800;-50
2023/07/27 12:08:22;;;;;;;3.77;2.90;;;25.70;30.60;;;;;;5134214;27;20840;-54
2023/07/27 12:10:55;;;;;;;7.73;3.53;;;25.70;30.30;;;;;;5134454;27;20404;-51
2023/07/27 12:13:25;;;;;;;2.80;2.30;;;25.70;31.00;;;;;;5134489;27;20393;-50
2023/07/27 12:15:57;;;;;;;6.40;3.17;;;25.60;30.60;;;;;;5133998;27;20416;-52
2023/07/27 12:18:26;;;;;;;4.30;2.90;;;25.60;30.80;;;;;;5134229;27;20404;-49
2023/07/27 12:20:53;;;;;;;4.80;2.83;;;25.50;31.10;;;;;;5134004;27;20404;-48
2023/07/27 12:23:19;;;;;;;6.47;2.97;;;25.40;31.80;;;;;;5133941;27;20889;-54
2023/07/27 12:25:44;;;;;;;4.60;2.90;;;25.40;32.20;;;;;;5133871;27;20451;-53
2023/07/27 12:28:10;;;;;;;3.03;2.40;;;25.50;31.90;;;;;;5133914;27;20905;-48
2023/07/27 12:30:36;;;;;;;3.77;2.83;;;25.50;32.30;;;;;;5133859;27;20166;-49
2023/07/27 12:33:02;;;;;;;3.90;2.33;;;25.50;32.10;;;;;;5133798;27;20193;-52
2023/07/27 12:35:28;;;;;;;4.73;2.70;;;25.60;31.80;;;;;;5133313;27;20459;-50
2023/07/27 12:37:55;;;;;;;3.23;2.67;;;25.60;31.60;;;;;;5134087;27;20487;-50
2023/07/27 12:40:21;;;;;;;4.80;2.80;;;25.50;31.60;;;;;;5133667;27;20404;-52
2023/07/27 12:42:47;;;;;;;3.30;2.80;;;25.50;33.00;;;;;;5133853;27;20917;-53
2023/07/27 12:45:13;;;;;;;8.37;4.00;;;25.40;34.30;;;;;;5133173;27;20797;-49
2023/07/27 12:47:42;;;;;;;4.60;3.50;;;25.40;35.80;;;;;;5133636;27;20404;-54
2023/07/27 12:50:09;;;;;;;4.27;3.00;;;25.30;36.30;;;;;;5133784;27;20435;-49
2023/07/27 12:52:35;;;;;;;6.23;3.27;;;25.30;35.90;;;;;;5133464;27;20427;-52
2023/07/27 12:55:01;;;;;;;3.27;2.73;;;25.10;35.70;;;;;;5133288;27;20483;-49
2023/07/27 12:57:26;;;;;;;4.90;3.00;;;25.10;35.90;;;;;;5133407;27;20766;-51
2023/07/27 12:59:52;;;;;;;4.80;3.47;;;25.00;36.70;;;;;;5133458;27;20461;-53
2023/07/27 13:02:18;;;;;;;6.43;3.03;;;25.00;37.00;;;;;;5133444;27;20708;-50
2023/07/27 13:04:45;;;;;;;4.80;3.50;;;24.90;37.00;;;;;;5133005;27;20191;-52
2023/07/27 13:07:13;;;;;;;3.90;3.20;;;24.80;37.90;;;;;;5133338;27;20174;-53
2023/07/27 13:09:40;;;;;;;7.00;3.90;;;24.80;37.80;;;;;;5132920;27;20492;-53
2023/07/27 13:12:07;;;;;;;4.47;3.37;;;24.80;38.40;;;;;;5133366;27;20423;-53
2023/07/27 13:14:33;;;;;;;6.23;4.40;;;24.70;39.00;;;;;;5132648;27;20459;-49
2023/07/27 13:16:59;;;;;;;4.60;3.87;;;24.70;40.40;;;;;;5133429;27;20411;-49
2023/07/27 13:19:25;;;;;;;4.53;4.13;;;24.60;41.00;;;;;;5133092;27;20881;-52
2023/07/27 13:21:51;;;;;;;4.30;3.50;;;24.60;40.50;;;;;;5133245;27;20174;-50
2023/07/27 13:24:17;;;;;;;4.40;3.37;;;24.50;40.20;;;;;;5132773;27;20198;-50
2023/07/27 13:26:43;;;;;;;5.20;4.17;;;24.40;40.10;;;;;;5133016;27;20402;-51
2023/07/27 13:29:10;;;;;;;6.63;3.70;;;24.30;40.00;;;;;;5133054;27;20175;-52
2023/07/27 13:31:36;;;;;;;5.87;4.20;;;24.30;40.00;;;;;;5133039;27;20408;-49
2023/07/27 13:34:02;;;;;;;4.90;3.90;;;24.20;41.30;;;;;;5132400;27;20574;-53
2023/07/27 13:36:28;;;;;;;5.20;3.90;;;24.10;41.80;;;;;;5133114;27;20177;-52
2023/07/27 13:38:53;;;;;;;5.13;4.00;;;24.10;42.10;;;;;;5133114;27;20471;-49
2023/07/27 13:41:19;;;;;;;7.73;4.40;;;24.10;42.90;;;;;;5132871;27;20170;-50
2023/07/27 13:43:45;;;;;;;4.53;4.10;;;24.20;43.20;;;;;;5132748;27;20216;-52
2023/07/27 13:46:11;;;;;;;5.57;3.83;;;24.10;43.30;;;;;;5132624;27;20194;-51
2023/07/27 13:48:37;;;;;;;7.53;3.93;;;24.10;43.30;;;;;;5133088;27;20548;-49
2023/07/27 13:51:02;;;;;;;8.10;4.00;;;24.20;43.80;;;;;;5132827;27;20175;-50
2023/07/27 13:53:28;;;;;;;6.30;4.30;;;24.20;44.30;;;;;;5132608;28;20261;-52
2023/07/27 13:55:54;;;;;;;4.67;4.27;;;24.20;45.20;;;;;;5132436;27;20431;-50
2023/07/27 13:58:20;;;;;;;5.67;4.33;;;24.20;44.80;;;;;;5132719;27;20195;-50
2023/07/27 14:00:46;;;;;;;6.00;5.30;;;24.20;44.90;;;;;;5132782;27;20170;-53
2023/07/27 14:03:13;;;;;;;8.57;4.87;;;24.20;44.40;;;;;;5132602;28;20174;-50
2023/07/27 14:05:39;;;;;;;4.57;4.17;;;24.20;44.10;;;;;;5132512;27;20420;-50
2023/07/27 14:08:05;;;;;;;5.03;4.10;;;24.20;44.50;;;;;;5132794;27;20412;-50
2023/07/27 14:10:31;;;;;;;6.20;5.00;;;24.10;44.90;;;;;;5132709;27;20189;-49
2023/07/27 14:12:56;;;;;;;5.93;4.73;;;24.10;44.60;;;;;;5132560;27;20781;-51
2023/07/27 14:15:22;;;;;;;5.30;4.00;;;24.20;44.50;;;;;;5132268;27;20202;-52
2023/07/27 14:17:48;;;;;;;6.67;4.10;;;24.20;43.60;;;;;;5132450;27;20171;-50
2023/07/27 14:20:14;;;;;;;5.93;4.80;;;24.10;43.80;;;;;;5132859;27;20175;-49
2023/07/27 14:22:40;;;;;;;6.87;5.20;;;24.10;43.90;;;;;;5136629;27;20670;-52
2023/07/27 14:25:06;;;;;;;5.63;5.03;;;24.10;44.40;;;;;;5136134;27;20671;-49
2023/07/27 14:27:32;;;;;;;6.20;4.60;;;24.10;44.00;;;;;;5136251;27;20178;-49
2023/07/27 14:29:59;;;;;;;12.13;5.10;;;24.00;43.80;;;;;;5136295;27;20408;-53
2023/07/27 14:32:25;;;;;;;5.40;4.30;;;23.90;43.90;;;;;;5136301;27;20416;-52
2023/07/27 14:34:50;;;;;;;5.87;3.50;;;23.80;43.60;;;;;;5135887;27;20507;-50
2023/07/27 14:37:16;;;;;;;4.53;4.00;;;23.60;43.00;;;;;;5136283;27;20494;-52
2023/07/27 14:39:42;;;;;;;7.30;3.67;;;23.40;43.60;;;;;;5136062;27;20171;-52
2023/07/27 14:42:08;;;;;;;4.07;3.50;;;23.20;44.60;;;;;;5135999;27;20174;-51
2023/07/27 14:44:34;;;;;;;6.20;3.07;;;23.20;44.90;;;;;;5135646;27;20466;-52
2023/07/27 14:46:59;;;;;;;6.70;4.30;;;23.10;45.60;;;;;;5135854;27;20186;-53
2023/07/27 17:59:51;;;;;;;3.73;2.70;;;17.50;60.70;;;;;;5172013;27;20572;-52
2023/07/27 18:02:17;;;;;;;2.60;2.37;;;21.50;56.00;;;;;;5172909;27;20451;-52
2023/07/27 18:04:43;;;;;;;3.60;2.77;;;21.70;54.40;;;;;;5172415;27;20855;-55
2023/07/27 18:07:09;;;;;;;5.67;3.60;;;22.00;53.00;;;;;;5171920;27;20399;-52
2023/07/27 18:09:36;;;;;;;3.60;2.87;;;22.00;52.50;;;;;;5171823;27;20453;-52
2023/07/27 18:12:02;;;;;;;4.97;2.10;;;22.20;51.90;;;;;;5171833;27;20436;-55
2023/07/27 18:14:28;;;;;;;3.97;2.87;;;22.30;51.40;;;;;;5172059;27;20405;-52
2023/07/27 18:16:54;;;;;;;5.80;2.03;;;22.40;51.10;;;;;;5171757;27;20398;-52
2023/07/27 18:19:20;;;;;;;2.20;2.00;;;22.40;51.00;;;;;;5171645;27;20826;-54
2023/07/27 18:21:48;;;;;;;3.00;1.97;;;22.50;50.70;;;;;;5172704;27;20174;-53
2023/07/27 18:24:13;;;;;;;3.30;3.00;;;22.50;50.50;;;;;;5170075;27;20165;-53
2023/07/27 18:26:39;;;;;;;3.03;2.43;;;22.50;50.60;;;;;;5171474;27;20403;-53
2023/07/27 18:29:06;;;;;;;7.23;2.50;;;22.60;50.40;;;;;;5172437;27;20197;-53
2023/07/27 18:31:33;;;;;;;4.73;3.07;;;22.60;50.50;;;;;;5172977;27;20209;-53
2023/07/27 18:34:01;;;;;;;3.67;3.17;;;22.60;50.70;;;;;;5172678;27;20399;-52
2023/07/27 18:36:27;;;;;;;2.50;2.30;;;22.60;50.90;;;;;;5172461;27;20767;-54
2023/07/27 18:38:54;;;;;;;3.63;3.17;;;22.60;51.00;;;;;;5171998;27;20425;-53
2023/07/27 18:41:20;;;;;;;2.97;2.00;;;22.60;51.10;;;;;;5172152;27;20423;-52
2023/07/27 18:43:47;;;;;;;3.47;2.80;;;22.70;51.00;;;;;;5172381;27;20468;-53
2023/07/27 18:46:17;;;;;;;4.60;2.37;;;22.70;51.20;;;;;;5172612;27;20844;-54
2023/07/27 18:48:44;;;;;;;6.50;2.73;;;22.70;50.80;;;;;;5172540;27;20456;-51
2023/07/27 18:51:11;;;;;;;3.37;2.93;;;22.70;50.60;;;;;;5171728;27;20405;-51
2023/07/27 18:53:37;;;;;;;4.37;2.50;;;22.70;50.50;;;;;;5172049;27;20398;-54
2023/07/27 18:56:03;;;;;;;3.00;2.33;;;22.70;50.30;;;;;;5172526;27;20476;-56
2023/07/27 18:58:30;;;;;;;2.77;2.30;;;22.80;49.90;;;;;;5171923;27;20205;-51
2023/07/27 19:00:57;;;;;;;3.83;2.60;;;22.80;49.60;;;;;;5157054;27;20407;-52
2023/07/27 19:03:25;;;;;;;2.70;2.10;;;22.80;49.50;;;;;;5158026;27;20477;-51
2023/07/27 19:05:51;;;;;;;6.33;2.57;;;22.80;49.60;;;;;;5157608;27;20399;-54
2023/07/27 19:08:20;;;;;;;1.93;1.70;;;22.80;49.60;;;;;;5157818;27;21014;-53
2023/07/27 19:10:46;;;;;;;2.27;2.00;;;22.80;49.70;;;;;;5157274;27;20480;-54
2023/07/27 19:13:12;;;;;;;2.23;1.67;;;22.80;49.80;;;;;;5158054;27;20395;-55
2023/07/27 19:15:47;;;;;;;2.07;1.67;;;22.90;49.90;;;;;;5157610;27;20395;-52
2023/07/27 19:18:13;;;;;;;3.13;1.63;;;22.90;49.60;;;;;;5157457;27;20506;-53
2023/07/27 19:20:39;;;;;;;2.03;1.83;;;22.90;49.50;;;;;;5157567;27;20492;-54
2023/07/27 19:23:06;;;;;;;2.87;2.00;;;22.90;49.40;;;;;;5157968;27;20442;-51
2023/07/27 19:25:40;;;;;;;1.50;1.00;;;22.90;50.10;;;;;;5157234;27;20223;-51
2023/07/27 19:28:07;;;;;;;2.97;1.93;;;22.90;49.40;;;;;;5157073;27;20449;-55
2023/07/27 19:30:36;;;;;;;2.57;1.77;;;22.90;49.50;;;;;;5157610;27;20431;-53
2023/07/27 19:33:09;;;;;;;2.20;1.30;;;22.90;49.30;;;;;;5157476;27;20915;-52
2023/07/27 19:35:36;;;;;;;3.00;2.33;;;22.90;49.30;;;;;;5157748;27;20414;-54
2023/07/27 19:38:04;;;;;;;2.30;1.60;;;22.90;50.10;;;;;;5156715;27;20427;-55
2023/07/27 19:40:30;;;;;;;1.70;1.50;;;23.00;49.40;;;;;;5157429;27;20477;-51
2023/07/27 19:42:56;;;;;;;1.80;1.30;;;22.90;49.40;;;;;;5156057;27;20489;-53
2023/07/27 19:45:22;;;;;;;1.80;1.20;;;22.90;49.40;;;;;;5157206;27;20406;-54
2023/07/27 19:47:48;;;;;;;2.00;1.50;;;22.90;49.50;;;;;;5156845;27;20438;-53
2023/07/27 19:50:14;;;;;;;1.70;1.23;;;22.90;49.50;;;;;;5155799;27;20166;-51
2023/07/27 19:52:40;;;;;;;2.93;1.60;;;22.90;49.50;;;;;;5155809;27;20407;-53
2023/07/27 19:55:07;;;;;;;1.53;1.10;;;22.90;49.40;;;;;;5155723;27;20425;-52
2023/07/27 19:57:33;;;;;;;2.20;2.00;;;22.90;49.30;;;;;;5155621;27;20763;-53
2023/07/27 19:59:59;;;;;;;1.60;1.30;;;23.00;49.30;;;;;;5155337;27;20506;-53
2023/07/27 20:02:25;;;;;;;2.33;0.97;;;22.90;49.40;;;;;;5154420;27;20907;-54
2023/07/27 20:04:52;;;;;;;1.70;1.40;;;23.00;49.30;;;;;;5155625;27;20403;-54
2023/07/27 20:07:19;;;;;;;2.03;1.20;;;22.90;49.40;;;;;;5155505;27;20412;-52
2023/07/27 20:09:45;;;;;;;1.40;0.90;;;22.90;49.50;;;;;;5155297;27;20753;-52
2023/07/27 20:12:11;;;;;;;1.73;1.20;;;22.90;49.50;;;;;;5153143;27;20407;-52
2023/07/27 20:14:37;;;;;;;2.83;1.53;;;22.90;49.50;;;;;;5155383;27;20402;-52
2023/07/27 20:17:04;;;;;;;2.53;1.60;;;22.90;49.50;;;;;;5155312;27;20494;-52
2023/07/27 20:19:30;;;;;;;2.10;1.23;;;22.80;49.60;;;;;;5154969;27;20187;-55
2023/07/27 20:21:56;;;;;;;1.80;1.13;;;22.90;49.70;;;;;;5155188;27;20403;-54
2023/07/27 20:24:23;;;;;;;3.00;1.80;;;22.90;49.70;;;;;;5153734;27;20414;-53
2023/07/27 20:26:49;;;;;;;1.50;0.97;;;22.90;49.80;;;;;;5155033;27;20422;-54
2023/07/27 20:29:15;;;;;;;2.00;1.20;;;22.90;49.60;;;;;;5154559;27;20990;-55
2023/07/27 20:31:42;;;;;;;1.60;1.20;;;22.90;49.80;;;;;;5154913;27;20403;-54
2023/07/27 20:34:08;;;;;;;1.97;1.30;;;22.90;49.50;;;;;;5153590;27;20403;-54
2023/07/27 20:36:34;;;;;;;1.70;1.07;;;22.90;49.50;;;;;;5154726;27;20411;-54
2023/07/27 20:39:00;;;;;;;1.67;1.13;;;22.90;49.50;;;;;;5154408;27;20480;-54
2023/07/27 20:41:27;;;;;;;2.33;1.30;;;22.90;49.60;;;;;;5153455;27;20304;-54
2023/07/27 20:43:53;;;;;;;1.70;1.00;;;22.90;49.70;;;;;;5154909;27;20399;-54
2023/07/27 20:46:20;;;;;;;1.87;1.00;;;22.90;49.60;;;;;;5154697;27;20451;-53
2023/07/27 20:48:46;;;;;;;4.27;1.13;;;22.90;49.60;;;;;;5152993;27;20451;-56
2023/07/27 20:51:12;;;;;;;2.00;1.20;;;23.00;49.50;;;;;;5154575;27;20404;-54
2023/07/27 20:53:39;;;;;;;1.90;1.23;;;23.00;49.60;;;;;;5154442;27;20760;-51
2023/07/27 20:56:15;;;;;;;2.37;1.17;;;23.00;49.70;;;;;;5154548;27;20403;-51
2023/07/27 20:58:43;;;;;;;2.07;1.37;;;23.00;49.70;;;;;;5154331;27;20442;-52
2023/07/27 21:01:09;;;;;;;1.97;0.90;;;23.00;49.60;;;;;;5154677;27;20422;-51
2023/07/27 21:03:36;;;;;;;1.90;1.33;;;23.00;49.50;;;;;;5154643;27;20418;-53
2023/07/27 21:06:03;;;;;;;1.80;1.03;;;23.10;49.50;;;;;;5152978;27;20911;-53
2023/07/27 21:08:36;;;;;;;1.80;1.13;;;23.10;49.60;;;;;;5153927;27;20812;-52
2023/07/27 21:11:03;;;;;;;1.80;1.30;;;23.20;49.60;;;;;;5154253;27;20387;-53
2023/07/27 21:13:30;;;;;;;2.80;1.17;;;23.20;49.60;;;;;;5154275;27;20396;-55
2023/07/27 21:16:07;;;;;;;1.73;1.20;;;23.20;49.50;;;;;;5154098;27;20777;-52
2023/07/27 21:18:34;;;;;;;2.23;1.33;;;23.20;49.50;;;;;;5153782;27;20416;-53
2023/07/27 21:21:08;;;;;;;2.03;1.07;;;23.20;49.30;;;;;;5152800;27;20908;-53
2023/07/27 21:23:34;;;;;;;1.90;1.20;;;23.20;49.20;;;;;;5153800;27;20501;-55
2023/07/27 21:26:01;;;;;;;3.13;1.20;;;23.30;49.40;;;;;;5154005;27;20491;-51
2023/07/27 21:28:28;;;;;;;1.73;1.20;;;23.30;49.30;;;;;;5153537;27;20456;-54
2023/07/27 21:31:00;;;;;;;1.93;1.20;;;23.20;49.20;;;;;;5154148;27;20403;-54
2023/07/27 21:33:26;;;;;;;1.47;1.07;;;23.30;49.40;;;;;;5154229;27;20473;-52
2023/07/27 21:35:52;;;;;;;1.70;1.07;;;23.30;49.40;;;;;;5154216;27;20399;-54
2023/07/27 21:38:18;;;;;;;2.00;1.37;;;23.30;49.50;;;;;;5153891;27;20988;-54
2023/07/27 21:40:44;;;;;;;1.70;1.00;;;23.30;49.30;;;;;;5153876;27;20427;-54
2023/07/27 21:43:18;;;;;;;2.80;1.17;;;23.30;49.40;;;;;;5154003;27;20433;-52
2023/07/27 21:45:45;;;;;;;2.20;1.20;;;23.20;49.60;;;;;;5153783;27;20403;-53
2023/07/27 21:48:11;;;;;;;1.43;1.10;;;23.20;50.00;;;;;;5153599;27;20857;-55
2023/07/27 21:50:38;;;;;;;1.70;0.90;;;23.10;50.40;;;;;;5153797;27;20403;-55
2023/07/27 21:53:04;;;;;;;1.47;0.73;;;23.10;50.70;;;;;;5152600;27;20261;-54
2023/07/27 21:55:30;;;;;;;1.57;0.90;;;23.10;51.00;;;;;;5154020;27;20425;-56
2023/07/27 21:57:56;;;;;;;1.83;1.10;;;23.10;50.90;;;;;;5153293;27;20178;-54
2023/07/27 22:00:22;;;;;;;2.47;1.03;;;23.10;51.00;;;;;;5153715;27;20410;-54
2023/07/27 22:02:48;;;;;;;1.73;1.00;;;23.10;51.20;;;;;;5153668;27;20171;-54
2023/07/27 22:05:14;;;;;;;1.40;0.90;;;23.10;51.20;;;;;;5153988;27;20532;-52
2023/07/27 22:07:40;;;;;;;1.40;0.80;;;23.10;51.50;;;;;;5153730;27;20487;-55
2023/07/27 22:10:06;;;;;;;1.63;0.80;;;23.10;51.70;;;;;;5153620;27;20557;-52
2023/07/27 22:12:32;;;;;;;2.10;0.97;;;23.10;51.60;;;;;;5153774;27;20571;-51
2023/07/27 22:14:58;;;;;;;1.20;0.80;;;23.00;51.70;;;;;;5153584;27;20415;-51
2023/07/27 22:17:25;;;;;;;1.57;0.90;;;23.00;52.00;;;;;;5153575;27;20400;-54
2023/07/27 22:19:51;;;;;;;1.30;0.90;;;23.00;52.00;;;;;;5134986;27;20431;-53
2023/07/27 22:22:17;;;;;;;2.07;1.10;;;23.00;52.10;;;;;;5153464;27;20409;-51
2023/07/27 22:24:43;;;;;;;1.83;1.00;;;23.00;52.00;;;;;;5153583;27;20226;-51
2023/07/27 22:27:08;;;;;;;1.30;1.10;;;23.10;51.70;;;;;;5153410;27;20167;-53
2023/07/27 22:29:34;;;;;;;1.40;0.93;;;23.10;51.70;;;;;;5153207;27;20681;-53
2023/07/27 22:32:00;;;;;;;2.57;1.00;;;23.10;51.90;;;;;;5153759;27;20178;-50
2023/07/27 22:34:26;;;;;;;1.50;0.97;;;23.10;51.80;;;;;;5154307;27;20980;-52
2023/07/27 22:36:52;;;;;;;1.30;1.10;;;23.10;51.80;;;;;;5157336;27;20415;-54
2023/07/27 22:39:18;;;;;;;1.47;0.87;;;23.20;51.90;;;;;;5157063;27;20563;-54
2023/07/27 22:41:43;;;;;;;1.47;0.90;;;23.20;51.90;;;;;;5157133;27;20205;-51
2023/07/27 22:44:09;;;;;;;2.07;1.37;;;23.20;51.80;;;;;;5157502;27;20166;-54
2023/07/27 22:46:35;;;;;;;2.23;1.20;;;23.20;51.90;;;;;;5157324;27;20661;-53
2023/07/27 22:49:01;;;;;;;1.50;1.10;;;23.20;52.00;;;;;;5156864;27;20204;-51
2023/07/27 22:51:27;;;;;;;1.90;0.87;;;23.20;51.90;;;;;;5157065;27;20189;-54
2023/07/27 22:53:52;;;;;;;1.60;1.07;;;23.20;52.00;;;;;;5157088;27;20191;-54
2023/07/27 22:56:18;;;;;;;1.70;1.37;;;23.20;52.00;;;;;;5156949;27;20483;-54
2023/07/27 22:58:44;;;;;;;1.70;1.00;;;23.20;51.90;;;;;;5155498;27;20689;-54
2023/07/27 23:01:11;;;;;;;2.80;1.30;;;23.20;51.90;;;;;;5156897;27;20422;-51
2023/07/27 23:03:37;;;;;;;2.10;1.50;;;23.20;51.70;;;;;;5155765;27;20175;-50
2023/07/27 23:06:04;;;;;;;1.60;1.40;;;23.20;51.70;;;;;;5156764;27;20396;-53
2023/07/27 23:08:29;;;;;;;1.60;1.20;;;23.20;51.90;;;;;;5156480;27;20541;-54
2023/07/27 23:10:55;;;;;;;2.00;1.20;;;23.20;52.00;;;;;;5156536;27;20491;-54
2023/07/27 23:13:21;;;;;;;3.20;1.57;;;23.20;51.90;;;;;;5156644;27;20189;-53
2023/07/27 23:15:47;;;;;;;1.70;1.23;;;23.20;51.90;;;;;;5156691;27;20452;-53
2023/07/27 23:18:14;;;;;;;1.40;0.93;;;23.20;52.00;;;;;;5156556;27;20367;-53
2023/07/27 23:20:40;;;;;;;1.20;0.70;;;23.10;52.20;;;;;;5156541;27;20417;-50
2023/07/27 23:23:06;;;;;;;1.93;1.20;;;23.20;52.00;;;;;;5156326;27;20456;-55
2023/07/27 23:25:32;;;;;;;1.93;1.00;;;23.10;52.00;;;;;;5156246;27;20407;-55
2023/07/27 23:28:02;;;;;;;2.20;1.00;;;23.20;51.90;;;;;;5155948;27;20447;-53